createdAt,value
2017-05-26T00:00:28.471Z,74.05
2017-05-26T00:02:58.322Z,74.22
2017-05-26T00:05:28.136Z,74.32
2017-05-26T00:07:57.949Z,74.37
2017-05-26T00:10:27.789Z,74.18
2017-05-26T00:12:57.606Z,74.46
2017-05-26T00:15:27.450Z,74.58
2017-05-26T00:17:57.264Z,74.37
2017-05-26T00:20:27.115Z,74.52
2017-05-26T00:22:56.963Z,74.57
2017-05-26T00:25:26.782Z,74.70
2017-05-26T00:27:56.639Z,74.88
2017-05-26T00:30:26.462Z,75.04
2017-05-26T00:32:56.279Z,74.84
2017-05-26T00:35:26.137Z,75.24
2017-05-26T00:37:55.956Z,75.30
2017-05-26T00:40:25.823Z,75.26
2017-05-26T00:42:55.680Z,75.39
2017-05-26T00:45:25.530Z,75.18
2017-05-26T00:47:55.343Z,75.41
2017-05-26T00:50:25.164Z,75.36
2017-05-26T00:52:55.007Z,75.58
2017-05-26T00:55:24.839Z,75.74
2017-05-26T00:57:54.723Z,76.17
2017-05-26T01:00:24.547Z,75.96
2017-05-26T01:02:54.370Z,76.29
2017-05-26T01:05:24.222Z,76.10
2017-05-26T01:07:54.038Z,76.15
2017-05-26T01:10:23.895Z,76.44
2017-05-26T01:12:53.760Z,76.39
2017-05-26T01:15:23.577Z,76.67
2017-05-26T01:17:53.424Z,76.80
2017-05-26T01:20:23.234Z,76.85
2017-05-26T01:22:53.086Z,76.85
2017-05-26T01:25:22.894Z,77.05
2017-05-26T01:27:52.712Z,77.02
2017-05-26T01:30:22.545Z,76.91
2017-05-26T01:32:52.626Z,76.89
2017-05-26T01:35:22.102Z,77.16
2017-05-26T01:37:52.146Z,77.16
2017-05-26T01:40:21.988Z,77.47
2017-05-26T01:42:51.846Z,77.43
2017-05-26T01:45:21.291Z,77.68
2017-05-26T01:47:51.167Z,77.89
2017-05-26T01:50:20.993Z,77.82
2017-05-26T01:52:50.801Z,78.06
2017-05-26T01:55:20.654Z,77.95
2017-05-26T01:57:50.493Z,78.15
2017-05-26T02:00:20.361Z,78.14
2017-05-26T02:02:50.171Z,78.04
2017-05-26T02:05:19.984Z,78.40
2017-05-26T02:07:49.839Z,78.34
2017-05-26T02:10:19.662Z,78.29
2017-05-26T02:12:49.513Z,78.77
2017-05-26T02:15:19.331Z,78.77
2017-05-26T02:17:49.146Z,78.94
2017-05-26T02:20:18.993Z,78.86
2017-05-26T02:22:48.802Z,79.05
2017-05-26T02:25:18.663Z,79.18
2017-05-26T02:27:48.480Z,79.27
2017-05-26T02:30:18.306Z,79.23
2017-05-26T02:32:48.142Z,79.33
2017-05-26T02:35:17.977Z,79.36
2017-05-26T02:37:47.826Z,79.56
2017-05-26T02:40:17.647Z,79.65
2017-05-26T02:42:47.470Z,79.66
2017-05-26T02:45:17.310Z,79.69
2017-05-26T02:47:47.149Z,79.39
2017-05-26T02:50:17.003Z,79.67
2017-05-26T02:52:46.678Z,79.74
2017-05-26T02:55:16.597Z,79.65
2017-05-26T02:57:46.448Z,79.58
2017-05-26T03:00:16.267Z,79.71
2017-05-26T03:02:46.120Z,79.84
2017-05-26T03:05:15.942Z,79.66
2017-05-26T03:07:45.760Z,80.09
2017-05-26T03:10:15.607Z,80.17
2017-05-26T03:12:45.430Z,80.16
2017-05-26T03:15:15.305Z,80.32
2017-05-26T03:17:45.124Z,80.70
2017-05-26T03:20:14.954Z,80.52
2017-05-26T03:22:44.852Z,80.68
2017-05-26T03:25:14.667Z,80.69
2017-05-26T03:27:44.587Z,80.80
2017-05-26T03:30:14.409Z,80.72
2017-05-26T03:32:44.247Z,80.33
2017-05-26T03:35:14.153Z,80.19
2017-05-26T03:37:43.978Z,80.09
2017-05-26T03:40:13.836Z,80.29
2017-05-26T03:42:43.658Z,80.46
2017-05-26T03:45:13.481Z,80.38
2017-05-26T03:47:43.334Z,80.39
2017-05-26T03:50:13.158Z,80.41
2017-05-26T03:52:43.025Z,80.27
2017-05-26T03:55:12.856Z,80.26
2017-05-26T03:57:42.692Z,80.33
2017-05-26T04:00:12.551Z,80.34
2017-05-26T04:02:42.366Z,80.01
2017-05-26T04:05:12.218Z,80.49
2017-05-26T04:07:42.056Z,80.27
2017-05-26T04:10:11.924Z,79.99
2017-05-26T04:12:41.756Z,79.79
2017-05-26T04:15:11.592Z,79.89
2017-05-26T04:17:41.443Z,80.15
2017-05-26T04:20:11.261Z,80.06
2017-05-26T04:22:41.160Z,80.36
2017-05-26T04:25:10.975Z,80.80
2017-05-26T04:27:40.801Z,80.63
2017-05-26T04:30:10.651Z,80.33
2017-05-26T04:32:40.523Z,79.85
2017-05-26T04:35:10.382Z,79.48
2017-05-26T04:37:40.258Z,79.17
2017-05-26T04:40:10.106Z,79.01
2017-05-26T04:42:39.963Z,79.42
2017-05-26T04:45:09.782Z,79.14
2017-05-26T04:47:39.642Z,78.63
2017-05-26T04:50:09.475Z,78.74
2017-05-26T04:52:39.313Z,78.75
2017-05-26T04:55:09.168Z,78.59
2017-05-26T04:57:39.014Z,78.49
2017-05-26T05:00:08.883Z,78.25
2017-05-26T05:02:38.714Z,78.43
2017-05-26T05:05:08.557Z,78.44
2017-05-26T05:07:38.415Z,78.63
2017-05-26T05:10:08.236Z,78.50
2017-05-26T05:12:38.089Z,79.08
2017-05-26T05:15:07.920Z,79.20
2017-05-26T05:17:37.743Z,78.87
2017-05-26T05:20:07.599Z,78.67
2017-05-26T05:22:37.430Z,78.43
2017-05-26T05:25:07.353Z,78.17
2017-05-26T05:27:37.188Z,78.75
2017-05-26T05:30:07.019Z,78.40
2017-05-26T05:32:36.881Z,78.35
2017-05-26T05:35:06.703Z,78.28
2017-05-26T05:37:36.563Z,78.06
2017-05-26T05:40:06.398Z,78.40
2017-05-26T05:42:36.219Z,78.41
2017-05-26T05:45:06.124Z,78.64
2017-05-26T05:47:35.939Z,78.50
2017-05-26T05:50:05.797Z,78.72
2017-05-26T05:52:35.620Z,78.84
2017-05-26T05:55:05.452Z,78.57
2017-05-26T05:57:35.346Z,78.23
2017-05-26T06:00:05.169Z,78.08
2017-05-26T06:02:35.026Z,78.38
2017-05-26T06:05:04.843Z,78.18
2017-05-26T06:07:34.671Z,77.92
2017-05-26T06:10:04.584Z,78.55
2017-05-26T06:12:34.423Z,78.93
2017-05-26T06:15:04.287Z,79.49
2017-05-26T06:17:34.113Z,79.40
2017-05-26T06:20:03.995Z,79.37
2017-05-26T06:22:33.851Z,79.17
2017-05-26T06:25:03.700Z,79.27
2017-05-26T06:27:33.597Z,79.02
2017-05-26T06:30:03.424Z,78.80
2017-05-26T06:32:33.263Z,79.31
2017-05-26T06:35:03.126Z,78.62
2017-05-26T06:37:32.959Z,78.84
2017-05-26T06:40:02.861Z,78.99
2017-05-26T06:42:32.691Z,78.47
2017-05-26T06:45:02.567Z,77.86
2017-05-26T06:47:32.418Z,77.74
2017-05-26T06:50:02.361Z,77.62
2017-05-26T06:52:32.229Z,77.82
2017-05-26T06:55:02.162Z,77.83
2017-05-26T06:57:32.004Z,77.94
2017-05-26T07:00:01.899Z,77.89
2017-05-26T07:02:31.730Z,77.96
2017-05-26T07:05:01.589Z,78.00
2017-05-26T07:07:31.425Z,78.20
2017-05-26T07:10:01.274Z,77.78
2017-05-26T07:12:31.163Z,77.99
2017-05-26T07:15:00.999Z,77.94
2017-05-26T07:17:30.930Z,77.98
2017-05-26T07:20:00.754Z,78.04
2017-05-26T07:22:30.587Z,78.04
2017-05-26T07:25:00.442Z,78.19
2017-05-26T07:27:30.258Z,78.32
2017-05-26T07:30:00.135Z,78.92
2017-05-26T07:32:29.973Z,78.26
2017-05-26T07:34:59.823Z,78.29
2017-05-26T07:37:29.703Z,78.04
2017-05-26T07:39:59.523Z,78.03
2017-05-26T07:42:29.395Z,77.95
2017-05-26T07:44:59.219Z,77.72
2017-05-26T07:47:29.082Z,77.48
2017-05-26T07:49:58.907Z,77.44
2017-05-26T07:52:28.764Z,77.27
2017-05-26T07:54:58.619Z,77.43
2017-05-26T07:57:28.453Z,77.56
2017-05-26T07:59:58.361Z,77.13
2017-05-26T08:02:28.208Z,76.67
2017-05-26T08:04:58.034Z,76.93
2017-05-26T08:07:27.886Z,76.58
2017-05-26T08:09:57.719Z,77.15
2017-05-26T08:12:27.596Z,76.48
2017-05-26T08:14:57.416Z,76.76
2017-05-26T08:17:27.238Z,76.78
2017-05-26T08:19:58.379Z,76.95
2017-05-26T08:22:28.203Z,76.56
2017-05-26T08:24:58.040Z,75.09
2017-05-26T08:27:27.900Z,74.71
2017-05-26T08:29:57.730Z,73.51
2017-05-26T08:32:27.606Z,73.42
2017-05-26T08:34:57.439Z,73.75
2017-05-26T08:37:27.274Z,73.16
2017-05-26T08:39:57.124Z,72.21
2017-05-26T08:42:26.948Z,71.05
2017-05-26T08:44:56.822Z,70.76
2017-05-26T08:47:26.712Z,71.17
2017-05-26T08:49:56.547Z,70.51
2017-05-26T08:52:26.402Z,69.33
2017-05-26T08:54:56.239Z,70.13
2017-05-26T08:57:26.147Z,70.56
2017-05-26T08:59:55.982Z,69.92
2017-05-26T09:02:25.878Z,69.40
2017-05-26T09:04:55.769Z,70.07
2017-05-26T09:07:25.594Z,69.96
2017-05-26T09:09:55.462Z,68.96
2017-05-26T09:12:25.306Z,68.17
2017-05-26T09:14:55.159Z,67.97
2017-05-26T09:17:24.991Z,67.12
2017-05-26T09:19:54.825Z,67.62
2017-05-26T09:22:24.683Z,66.66
2017-05-26T09:24:54.510Z,67.43
2017-05-26T09:27:24.375Z,67.02
2017-05-26T09:29:54.227Z,66.37
2017-05-26T09:32:24.064Z,67.35
2017-05-26T09:34:53.918Z,67.34
2017-05-26T09:37:23.746Z,67.10
2017-05-26T09:39:53.599Z,65.29
2017-05-26T09:42:23.425Z,66.29
2017-05-26T09:44:53.282Z,65.54
2017-05-26T09:47:23.104Z,66.11
2017-05-26T09:49:52.940Z,65.94
2017-05-26T09:52:22.794Z,66.89
2017-05-26T09:54:52.614Z,66.46
2017-05-26T09:57:22.458Z,64.66
2017-05-26T09:59:52.273Z,64.55
2017-05-26T10:02:22.094Z,64.88
2017-05-26T10:04:51.938Z,65.03
2017-05-26T10:07:21.753Z,64.83
2017-05-26T10:09:51.630Z,63.21
2017-05-26T10:12:21.457Z,62.69
2017-05-26T10:14:51.310Z,62.09
2017-05-26T10:17:21.123Z,61.89
2017-05-26T10:19:50.943Z,61.72
2017-05-26T10:22:21.035Z,61.41
2017-05-26T10:24:50.841Z,61.10
2017-05-26T10:27:20.698Z,60.77
2017-05-26T10:29:50.515Z,59.99
2017-05-26T10:32:20.344Z,59.72
2017-05-26T10:34:50.193Z,59.88
2017-05-26T10:37:20.015Z,58.81
2017-05-26T10:39:49.858Z,57.68
2017-05-26T10:42:19.675Z,56.60
2017-05-26T10:44:49.510Z,55.06
2017-05-26T10:47:19.347Z,54.40
2017-05-26T10:49:49.159Z,53.37
2017-05-26T10:52:19.025Z,53.21
2017-05-26T10:54:48.842Z,50.83
2017-05-26T10:57:18.652Z,50.30
2017-05-26T10:59:48.493Z,49.87
2017-05-26T11:02:18.303Z,51.53
2017-05-26T11:04:48.147Z,50.56
2017-05-26T11:07:17.954Z,50.52
2017-05-26T11:09:47.799Z,52.00
2017-05-26T11:12:17.645Z,52.03
2017-05-26T11:14:47.470Z,49.81
2017-05-26T11:17:17.347Z,51.09
2017-05-26T11:19:47.158Z,51.09
2017-05-26T11:22:17.032Z,49.82
2017-05-26T11:24:46.870Z,49.61
2017-05-26T11:27:16.685Z,49.64
2017-05-26T11:29:46.542Z,50.46
2017-05-26T11:32:16.362Z,51.64
2017-05-26T11:34:46.210Z,51.29
2017-05-26T11:37:16.053Z,49.89
2017-05-26T11:39:45.878Z,47.40
2017-05-26T11:42:15.758Z,48.81
2017-05-26T11:44:45.573Z,49.15
2017-05-26T11:47:15.399Z,48.60
2017-05-26T11:49:45.243Z,48.40
2017-05-26T11:52:15.057Z,49.51
2017-05-26T11:54:44.908Z,48.66
2017-05-26T11:57:14.719Z,48.17
2017-05-26T11:59:44.528Z,47.04
2017-05-26T12:02:14.384Z,47.89
2017-05-26T12:04:44.210Z,47.85
2017-05-26T12:07:14.074Z,46.81
2017-05-26T12:09:43.885Z,48.17
2017-05-26T12:12:13.719Z,47.32
2017-05-26T12:14:43.568Z,47.48
2017-05-26T12:17:13.390Z,48.19
2017-05-26T12:19:43.243Z,48.45
2017-05-26T12:22:13.071Z,47.74
2017-05-26T12:24:42.924Z,47.22
2017-05-26T12:27:12.771Z,47.91
2017-05-26T12:29:42.590Z,48.86
2017-05-26T12:32:12.414Z,48.71
2017-05-26T12:34:42.263Z,49.49
2017-05-26T12:37:12.076Z,48.58
2017-05-26T12:39:41.932Z,48.75
2017-05-26T12:42:11.739Z,47.54
2017-05-26T12:44:41.552Z,48.53
2017-05-26T12:47:11.398Z,47.55
2017-05-26T12:49:41.218Z,48.58
2017-05-26T12:52:11.079Z,49.37
2017-05-26T12:54:40.909Z,49.93
2017-05-26T12:57:10.750Z,49.61
2017-05-26T12:59:40.596Z,49.61
2017-05-26T13:02:10.412Z,49.23
2017-05-26T13:04:40.257Z,49.82
2017-05-26T13:07:10.070Z,50.45
2017-05-26T13:09:39.898Z,50.26
2017-05-26T13:12:09.750Z,50.38
2017-05-26T13:14:39.567Z,50.51
2017-05-26T13:17:09.410Z,50.86
2017-05-26T13:19:39.220Z,50.65
2017-05-26T13:22:09.037Z,51.55
2017-05-26T13:24:38.898Z,50.86
2017-05-26T13:27:08.727Z,51.27
2017-05-26T13:29:38.581Z,50.37
2017-05-26T13:32:08.395Z,49.51
2017-05-26T13:34:38.254Z,49.52
2017-05-26T13:37:08.069Z,49.36
2017-05-26T13:39:37.879Z,48.65
2017-05-26T13:42:07.720Z,48.78
2017-05-26T13:44:37.531Z,48.24
2017-05-26T13:47:07.370Z,48.41
2017-05-26T13:49:37.191Z,50.05
2017-05-26T13:52:07.043Z,51.36
2017-05-26T13:54:36.869Z,51.04
2017-05-26T13:57:06.687Z,50.47
2017-05-26T13:59:36.527Z,50.49
2017-05-26T14:02:06.359Z,50.46
2017-05-26T14:04:36.206Z,50.87
2017-05-26T14:07:06.949Z,51.41
2017-05-26T14:09:36.806Z,50.39
2017-05-26T14:12:06.618Z,51.14
2017-05-26T14:14:36.440Z,50.77
2017-05-26T14:17:06.283Z,50.52
2017-05-26T14:19:36.098Z,51.21
2017-05-26T14:22:05.966Z,52.58
2017-05-26T14:24:35.785Z,51.09
2017-05-26T14:27:05.623Z,51.70
2017-05-26T14:29:35.464Z,51.05
2017-05-26T14:32:05.282Z,51.11
2017-05-26T14:34:35.132Z,49.41
2017-05-26T14:37:05.003Z,50.17
2017-05-26T14:39:34.862Z,50.35
2017-05-26T14:42:04.704Z,50.32
2017-05-26T14:44:34.522Z,48.16
2017-05-26T14:47:04.399Z,49.09
2017-05-26T14:49:34.232Z,49.79
2017-05-26T14:52:04.078Z,49.50
2017-05-26T14:54:33.898Z,47.74
2017-05-26T14:57:03.706Z,47.48
2017-05-26T14:59:33.553Z,47.86
2017-05-26T15:02:03.475Z,48.33
2017-05-26T15:04:33.339Z,48.93
2017-05-26T15:07:03.166Z,48.85
2017-05-26T15:09:32.978Z,49.54
2017-05-26T15:12:02.876Z,48.16
2017-05-26T15:14:32.685Z,48.34
2017-05-26T15:17:02.613Z,48.48
2017-05-26T15:19:32.462Z,48.76
2017-05-26T15:22:02.341Z,47.47
2017-05-26T15:24:32.162Z,48.21
2017-05-26T15:27:02.104Z,47.71
2017-05-26T15:29:32.005Z,49.55
2017-05-26T15:32:01.828Z,50.71
2017-05-26T15:34:31.737Z,49.43
2017-05-26T15:37:01.554Z,49.53
2017-05-26T15:39:31.377Z,49.53
2017-05-26T15:42:01.219Z,49.77
2017-05-26T15:44:31.042Z,49.63
2017-05-26T15:47:00.888Z,49.59
2017-05-26T15:49:30.717Z,49.86
2017-05-26T15:52:00.529Z,49.65
2017-05-26T15:54:30.378Z,49.88
2017-05-26T15:57:00.203Z,50.69
2017-05-26T15:59:30.062Z,50.24
2017-05-26T16:01:59.873Z,49.60
2017-05-26T16:04:29.690Z,49.82
2017-05-26T16:06:59.554Z,50.43
2017-05-26T16:09:29.375Z,50.48
2017-05-26T16:11:59.274Z,51.22
2017-05-26T16:14:29.109Z,50.48
2017-05-26T16:16:58.922Z,49.80
2017-05-26T16:19:28.771Z,49.87
2017-05-26T16:21:58.589Z,50.51
2017-05-26T16:24:28.463Z,50.69
2017-05-26T16:26:58.299Z,51.00
2017-05-26T16:29:28.112Z,51.35
2017-05-26T16:31:57.958Z,50.74
2017-05-26T16:34:27.769Z,51.03
2017-05-26T16:36:57.613Z,51.33
2017-05-26T16:39:27.434Z,51.34
2017-05-26T16:41:57.287Z,51.90
2017-05-26T16:44:27.119Z,51.73
2017-05-26T16:46:56.933Z,52.11
2017-05-26T16:49:26.822Z,52.01
2017-05-26T16:51:56.660Z,51.90
2017-05-26T16:54:26.510Z,51.61
2017-05-26T16:56:56.339Z,52.26
2017-05-26T16:59:26.162Z,52.42
2017-05-26T17:01:55.999Z,52.10
2017-05-26T17:04:25.828Z,52.75
2017-05-26T17:06:55.677Z,53.35
2017-05-26T17:09:25.521Z,53.40
2017-05-26T17:11:55.349Z,53.64
2017-05-26T17:14:25.221Z,53.57
2017-05-26T17:16:55.039Z,53.68
2017-05-26T17:19:24.906Z,53.85
2017-05-26T17:21:54.728Z,54.08
2017-05-26T17:24:24.548Z,54.28
2017-05-26T17:26:54.382Z,54.18
2017-05-26T17:29:24.195Z,54.39
2017-05-26T17:31:54.041Z,53.82
2017-05-26T17:34:23.862Z,54.06
2017-05-26T17:36:53.703Z,54.54
2017-05-26T17:39:23.584Z,54.72
2017-05-26T17:41:53.401Z,54.74
2017-05-26T17:44:23.252Z,54.91
2017-05-26T17:46:53.079Z,55.21
2017-05-26T17:49:22.905Z,55.35
2017-05-26T17:51:52.756Z,55.48
2017-05-26T17:54:22.576Z,55.58
2017-05-26T17:56:52.417Z,56.00
2017-05-26T17:59:22.237Z,55.69
2017-05-26T18:01:52.067Z,55.76
2017-05-26T18:04:21.905Z,55.66
2017-05-26T18:06:51.720Z,55.72
2017-05-26T18:09:21.577Z,55.94
2017-05-26T18:11:51.419Z,55.99
2017-05-26T18:14:21.239Z,55.94
2017-05-26T18:16:51.078Z,55.83
2017-05-26T18:19:20.897Z,56.00
2017-05-26T18:21:50.738Z,56.12
2017-05-26T18:24:20.603Z,56.30
2017-05-26T18:26:50.449Z,56.21
2017-05-26T18:29:20.274Z,56.50
2017-05-26T18:31:50.129Z,56.74
2017-05-26T18:34:19.984Z,56.97
2017-05-26T18:36:49.802Z,57.31
2017-05-26T18:39:19.650Z,57.50
2017-05-26T18:41:49.478Z,57.56
2017-05-26T18:44:19.298Z,57.84
2017-05-26T18:46:49.156Z,57.75
2017-05-26T18:49:18.974Z,57.42
2017-05-26T18:51:48.858Z,57.46
2017-05-26T18:54:18.670Z,57.44
2017-05-26T18:56:48.485Z,57.59
2017-05-26T18:59:18.318Z,57.83
2017-05-26T19:01:48.137Z,58.13
2017-05-26T19:04:17.987Z,58.42
2017-05-26T19:06:47.798Z,58.72
2017-05-26T19:09:17.618Z,59.50
2017-05-26T19:11:47.466Z,58.15
2017-05-26T19:14:17.316Z,58.59
2017-05-26T19:16:47.177Z,59.00
2017-05-26T19:19:16.995Z,58.70
2017-05-26T19:21:46.850Z,58.77
2017-05-26T19:24:16.709Z,58.22
2017-05-26T19:26:46.530Z,58.90
2017-05-26T19:29:16.379Z,58.02
2017-05-26T19:31:46.194Z,58.21
2017-05-26T19:34:16.110Z,58.58
2017-05-26T19:36:45.960Z,58.51
2017-05-26T19:39:15.773Z,58.32
2017-05-26T19:41:45.630Z,57.67
2017-05-26T19:44:15.446Z,57.19
2017-05-26T19:46:45.394Z,57.07
2017-05-26T19:49:15.217Z,57.67
2017-05-26T19:51:45.058Z,57.69
2017-05-26T19:54:14.902Z,57.86
2017-05-26T19:56:44.714Z,58.56
2017-05-26T19:59:14.598Z,58.20
2017-05-26T20:01:44.412Z,59.03
2017-05-26T20:04:14.254Z,59.35
2017-05-26T20:06:44.069Z,59.87
2017-05-26T20:09:13.882Z,59.99
2017-05-26T20:11:43.729Z,60.42
2017-05-26T20:14:13.543Z,60.44
2017-05-26T20:16:43.403Z,60.35
2017-05-26T20:19:13.214Z,60.73
2017-05-26T20:21:43.062Z,60.98
2017-05-26T20:24:12.868Z,61.54
2017-05-26T20:26:42.705Z,61.31
2017-05-26T20:29:12.558Z,61.02
2017-05-26T20:31:42.387Z,60.82
2017-05-26T20:34:12.232Z,61.02
2017-05-26T20:36:42.050Z,61.35
2017-05-26T20:39:11.889Z,61.54
2017-05-26T20:41:41.736Z,61.81
2017-05-26T20:44:11.554Z,62.36
2017-05-26T20:46:41.405Z,62.75
2017-05-26T20:49:11.229Z,63.41
2017-05-26T20:51:41.046Z,63.17
2017-05-26T20:54:10.894Z,62.86
2017-05-26T20:56:40.709Z,62.69
2017-05-26T20:59:10.550Z,62.41
2017-05-26T21:01:40.394Z,62.41
2017-05-26T21:04:10.226Z,62.83
2017-05-26T21:06:40.065Z,62.76
2017-05-26T21:09:09.886Z,62.75
2017-05-26T21:11:39.737Z,62.98
2017-05-26T21:14:09.550Z,63.38
2017-05-26T21:16:39.374Z,63.24
2017-05-26T21:19:09.215Z,63.54
2017-05-26T21:21:39.029Z,63.97
2017-05-26T21:24:08.877Z,63.66
2017-05-26T21:26:38.722Z,63.63
2017-05-26T21:29:08.542Z,63.89
2017-05-26T21:31:38.414Z,64.26
2017-05-26T21:34:08.231Z,64.83
2017-05-26T21:36:38.099Z,64.69
2017-05-26T21:39:07.906Z,64.93
2017-05-26T21:41:37.741Z,65.14
2017-05-26T21:44:07.586Z,65.49
2017-05-26T21:46:37.406Z,65.60
2017-05-26T21:49:07.259Z,65.20
2017-05-26T21:51:37.070Z,65.49
2017-05-26T21:54:06.882Z,65.59
2017-05-26T21:56:36.721Z,65.50
2017-05-26T21:59:06.533Z,65.37
2017-05-26T22:01:36.396Z,65.82
2017-05-26T22:04:06.244Z,65.69
2017-05-26T22:06:36.093Z,65.83
2017-05-26T22:09:05.580Z,66.05
2017-05-26T22:11:35.426Z,66.18
2017-05-26T22:14:05.263Z,66.29
2017-05-26T22:16:35.077Z,66.30
2017-05-26T22:19:04.946Z,66.49
2017-05-26T22:21:34.756Z,66.37
2017-05-26T22:24:04.590Z,66.57
2017-05-26T22:26:34.425Z,66.46
2017-05-26T22:29:04.241Z,66.53
2017-05-26T22:31:34.094Z,67.17
2017-05-26T22:34:03.902Z,67.32
2017-05-26T22:36:33.751Z,67.01
2017-05-26T22:39:03.101Z,66.71
2017-05-26T22:41:32.919Z,67.16
2017-05-26T22:44:02.786Z,67.49
2017-05-26T22:46:32.606Z,67.27
2017-05-26T22:49:02.494Z,67.17
2017-05-26T22:51:32.306Z,66.96
2017-05-26T22:54:02.132Z,67.00
2017-05-26T22:56:31.980Z,67.18
2017-05-26T22:59:01.791Z,67.17
2017-05-26T23:01:31.663Z,67.24
2017-05-26T23:04:01.476Z,67.37
2017-05-26T23:06:31.289Z,67.92
2017-05-26T23:09:01.143Z,67.85
2017-05-26T23:11:30.954Z,67.94
2017-05-26T23:14:00.822Z,67.71
2017-05-26T23:16:30.635Z,67.76
2017-05-26T23:19:00.449Z,68.09
2017-05-26T23:21:30.297Z,67.95
2017-05-26T23:24:00.127Z,68.05
2017-05-26T23:26:29.984Z,68.01
2017-05-26T23:28:59.803Z,68.10
2017-05-26T23:31:29.616Z,68.14
2017-05-26T23:33:59.463Z,68.05
2017-05-26T23:36:29.283Z,68.08
2017-05-26T23:38:59.129Z,68.31
2017-05-26T23:41:28.938Z,68.40
2017-05-26T23:43:58.753Z,68.68
2017-05-26T23:46:28.595Z,68.87
2017-05-26T23:48:58.411Z,68.76
2017-05-26T23:51:28.282Z,68.58
2017-05-26T23:53:58.102Z,68.80
2017-05-26T23:56:27.954Z,68.71
2017-05-26T23:58:57.809Z,69.28
